sensor_id;sensor_type;location;lat;lon;timestamp;P1;durP1;ratioP1;P2;durP2;ratioP2
19609;SDS011;9952;47.122;-1.638;2024-01-15T00:03:37;52.33;;;22.67;;
19609;SDS011;9952;47.122;-1.638;2024-01-15T00:08:18;50.23;;;21.93;;
19609;SDS011;9952;47.122;-1.638;2024-01-15T00:12:59;54.47;;;23.87;;
19609;SDS011;9952;47.122;-1.638;2024-01-15T00:17:39;55.20;;;22.37;;
19609;SDS011;9952;47.122;-1.638;2024-01-15T00:22:20;50.73;;;22.27;;
19609;SDS011;9952;47.122;-1.638;2024-01-15T00:27:01;49.10;;;21.17;;
19609;SDS011;9952;47.122;-1.638;2024-01-15T00:31:41;52.23;;;22.17;;
19609;SDS011;9952;47.122;-1.638;2024-01-15T00:36:22;49.97;;;20.97;;
19609;SDS011;9952;47.122;-1.638;2024-01-15T00:41:03;49.17;;;20.80;;
19609;SDS011;9952;47.122;-1.638;2024-01-15T00:45:44;55.23;;;23.03;;
19609;SDS011;9952;47.122;-1.638;2024-01-15T00:50:24;46.37;;;20.47;;
19609;SDS011;9952;47.122;-1.638;2024-01-15T00:55:05;47.43;;;21.03;;
19609;SDS011;9952;47.122;-1.638;2024-01-15T00:59:46;47.00;;;19.97;;
19609;SDS011;9952;47.122;-1.638;2024-01-15T01:04:27;45.47;;;20.43;;
19609;SDS011;9952;47.122;-1.638;2024-01-15T01:09:08;47.97;;;20.93;;
19609;SDS011;9952;47.122;-1.638;2024-01-15T01:13:48;46.30;;;19.83;;
19609;SDS011;9952;47.122;-1.638;2024-01-15T01:18:29;44.93;;;19.80;;
19609;SDS011;9952;47.122;-1.638;2024-01-15T01:23:10;45.50;;;20.30;;
19609;SDS011;9952;47.122;-1.638;2024-01-15T01:27:50;45.60;;;19.47;;
19609;SDS011;9952;47.122;-1.638;2024-01-15T01:32:31;40.70;;;19.17;;
19609;SDS011;9952;47.122;-1.638;2024-01-15T01:37:12;49.57;;;20.53;;
19609;SDS011;9952;47.122;-1.638;2024-01-15T01:41:53;40.93;;;18.87;;
19609;SDS011;9952;47.122;-1.638;2024-01-15T01:46:34;41.13;;;18.67;;
19609;SDS011;9952;47.122;-1.638;2024-01-15T01:51:20;36.87;;;17.83;;
19609;SDS011;9952;47.122;-1.638;2024-01-15T01:56:02;41.00;;;19.50;;
19609;SDS011;9952;47.122;-1.638;2024-01-15T02:00:44;41.20;;;18.07;;
19609;SDS011;9952;47.122;-1.638;2024-01-15T02:05:26;39.77;;;18.60;;
19609;SDS011;9952;47.122;-1.638;2024-01-15T02:10:08;36.00;;;17.07;;
19609;SDS011;9952;47.122;-1.638;2024-01-15T02:14:49;43.00;;;18.53;;
19609;SDS011;9952;47.122;-1.638;2024-01-15T02:19:30;39.53;;;17.93;;
19609;SDS011;9952;47.122;-1.638;2024-01-15T02:24:11;43.03;;;18.47;;
19609;SDS011;9952;47.122;-1.638;2024-01-15T02:28:51;36.53;;;18.17;;
19609;SDS011;9952;47.122;-1.638;2024-01-15T02:33:32;39.07;;;17.87;;
19609;SDS011;9952;47.122;-1.638;2024-01-15T02:38:13;33.47;;;16.40;;
19609;SDS011;9952;47.122;-1.638;2024-01-15T02:42:53;33.50;;;17.13;;
19609;SDS011;9952;47.122;-1.638;2024-01-15T02:47:35;35.13;;;16.10;;
19609;SDS011;9952;47.122;-1.638;2024-01-15T02:52:15;33.33;;;16.37;;
19609;SDS011;9952;47.122;-1.638;2024-01-15T02:56:56;35.07;;;16.30;;
19609;SDS011;9952;47.122;-1.638;2024-01-15T03:01:37;32.77;;;16.10;;
19609;SDS011;9952;47.122;-1.638;2024-01-15T03:06:17;32.70;;;16.20;;
19609;SDS011;9952;47.122;-1.638;2024-01-15T03:10:58;33.60;;;15.67;;
19609;SDS011;9952;47.122;-1.638;2024-01-15T03:15:39;33.37;;;15.70;;
19609;SDS011;9952;47.122;-1.638;2024-01-15T03:20:21;27.93;;;13.93;;
19609;SDS011;9952;47.122;-1.638;2024-01-15T03:25:02;29.87;;;14.80;;
19609;SDS011;9952;47.122;-1.638;2024-01-15T03:29:43;29.30;;;14.00;;
19609;SDS011;9952;47.122;-1.638;2024-01-15T03:34:24;31.87;;;14.10;;
19609;SDS011;9952;47.122;-1.638;2024-01-15T03:39:05;26.50;;;13.20;;
19609;SDS011;9952;47.122;-1.638;2024-01-15T03:43:45;26.97;;;12.93;;
19609;SDS011;9952;47.122;-1.638;2024-01-15T03:48:26;24.90;;;12.03;;
19609;SDS011;9952;47.122;-1.638;2024-01-15T03:53:07;26.50;;;12.60;;
19609;SDS011;9952;47.122;-1.638;2024-01-15T03:57:47;23.97;;;11.97;;
19609;SDS011;9952;47.122;-1.638;2024-01-15T04:02:28;27.77;;;13.30;;
19609;SDS011;9952;47.122;-1.638;2024-01-15T04:07:09;28.40;;;13.37;;
19609;SDS011;9952;47.122;-1.638;2024-01-15T04:11:50;28.37;;;13.50;;
19609;SDS011;9952;47.122;-1.638;2024-01-15T04:16:30;27.80;;;13.73;;
19609;SDS011;9952;47.122;-1.638;2024-01-15T04:21:11;28.03;;;13.83;;
19609;SDS011;9952;47.122;-1.638;2024-01-15T04:25:52;27.37;;;13.57;;
19609;SDS011;9952;47.122;-1.638;2024-01-15T04:30:32;28.37;;;13.97;;
19609;SDS011;9952;47.122;-1.638;2024-01-15T04:35:13;26.60;;;13.47;;
19609;SDS011;9952;47.122;-1.638;2024-01-15T04:39:54;26.60;;;13.17;;
19609;SDS011;9952;47.122;-1.638;2024-01-15T04:44:35;25.80;;;13.10;;
19609;SDS011;9952;47.122;-1.638;2024-01-15T04:49:15;24.77;;;12.70;;
19609;SDS011;9952;47.122;-1.638;2024-01-15T04:53:56;26.97;;;13.23;;
19609;SDS011;9952;47.122;-1.638;2024-01-15T04:58:37;26.00;;;12.83;;
19609;SDS011;9952;47.122;-1.638;2024-01-15T05:03:17;23.07;;;12.40;;
19609;SDS011;9952;47.122;-1.638;2024-01-15T05:07:58;21.30;;;11.67;;
19609;SDS011;9952;47.122;-1.638;2024-01-15T05:12:38;27.47;;;12.37;;
19609;SDS011;9952;47.122;-1.638;2024-01-15T05:17:19;24.13;;;12.07;;
19609;SDS011;9952;47.122;-1.638;2024-01-15T05:22:00;23.87;;;12.63;;
19609;SDS011;9952;47.122;-1.638;2024-01-15T05:26:40;26.07;;;12.93;;
19609;SDS011;9952;47.122;-1.638;2024-01-15T05:31:21;22.57;;;11.60;;
19609;SDS011;9952;47.122;-1.638;2024-01-15T05:36:02;20.80;;;11.10;;
19609;SDS011;9952;47.122;-1.638;2024-01-15T05:40:42;21.90;;;11.20;;
19609;SDS011;9952;47.122;-1.638;2024-01-15T05:45:25;18.27;;;10.50;;
19609;SDS011;9952;47.122;-1.638;2024-01-15T05:50:07;17.60;;;9.77;;
19609;SDS011;9952;47.122;-1.638;2024-01-15T05:54:49;18.73;;;9.43;;
19609;SDS011;9952;47.122;-1.638;2024-01-15T05:59:30;17.83;;;10.83;;
19609;SDS011;9952;47.122;-1.638;2024-01-15T06:04:13;14.83;;;8.60;;
19609;SDS011;9952;47.122;-1.638;2024-01-15T06:08:53;17.90;;;9.20;;
19609;SDS011;9952;47.122;-1.638;2024-01-15T06:13:34;17.93;;;9.53;;
19609;SDS011;9952;47.122;-1.638;2024-01-15T06:18:15;18.60;;;9.63;;
19609;SDS011;9952;47.122;-1.638;2024-01-15T06:22:55;21.30;;;9.93;;
19609;SDS011;9952;47.122;-1.638;2024-01-15T06:27:36;17.80;;;9.10;;
19609;SDS011;9952;47.122;-1.638;2024-01-15T06:32:16;14.47;;;8.60;;
19609;SDS011;9952;47.122;-1.638;2024-01-15T06:36:57;17.47;;;9.73;;
19609;SDS011;9952;47.122;-1.638;2024-01-15T06:41:38;16.53;;;9.20;;
19609;SDS011;9952;47.122;-1.638;2024-01-15T06:46:23;15.53;;;8.97;;
19609;SDS011;9952;47.122;-1.638;2024-01-15T06:51:04;17.57;;;9.90;;
19609;SDS011;9952;47.122;-1.638;2024-01-15T06:55:44;17.97;;;9.43;;
19609;SDS011;9952;47.122;-1.638;2024-01-15T07:00:25;15.20;;;8.90;;
19609;SDS011;9952;47.122;-1.638;2024-01-15T07:05:07;17.43;;;9.20;;
19609;SDS011;9952;47.122;-1.638;2024-01-15T07:09:48;17.20;;;9.07;;
19609;SDS011;9952;47.122;-1.638;2024-01-15T07:14:29;15.60;;;8.90;;
19609;SDS011;9952;47.122;-1.638;2024-01-15T07:19:09;18.40;;;10.17;;
19609;SDS011;9952;47.122;-1.638;2024-01-15T07:23:50;16.53;;;9.93;;
19609;SDS011;9952;47.122;-1.638;2024-01-15T07:28:31;19.43;;;10.27;;
19609;SDS011;9952;47.122;-1.638;2024-01-15T07:33:11;20.20;;;11.10;;
19609;SDS011;9952;47.122;-1.638;2024-01-15T07:37:52;19.23;;;10.50;;
19609;SDS011;9952;47.122;-1.638;2024-01-15T07:42:33;20.57;;;11.13;;
19609;SDS011;9952;47.122;-1.638;2024-01-15T07:47:16;21.67;;;12.90;;
19609;SDS011;9952;47.122;-1.638;2024-01-15T07:51:57;21.63;;;11.67;;
19609;SDS011;9952;47.122;-1.638;2024-01-15T07:56:56;24.27;;;13.23;;
19609;SDS011;9952;47.122;-1.638;2024-01-15T08:01:38;22.30;;;11.23;;
19609;SDS011;9952;47.122;-1.638;2024-01-15T08:06:19;19.27;;;11.60;;
19609;SDS011;9952;47.122;-1.638;2024-01-15T08:11:00;21.13;;;12.37;;
19609;SDS011;9952;47.122;-1.638;2024-01-15T08:15:41;20.17;;;10.90;;
19609;SDS011;9952;47.122;-1.638;2024-01-15T08:20:21;20.70;;;11.23;;
19609;SDS011;9952;47.122;-1.638;2024-01-15T08:25:02;22.27;;;11.53;;
19609;SDS011;9952;47.122;-1.638;2024-01-15T08:29:43;22.87;;;12.33;;
19609;SDS011;9952;47.122;-1.638;2024-01-15T08:34:24;23.63;;;11.73;;
19609;SDS011;9952;47.122;-1.638;2024-01-15T08:39:05;23.07;;;14.23;;
19609;SDS011;9952;47.122;-1.638;2024-01-15T08:43:46;21.87;;;11.87;;
19609;SDS011;9952;47.122;-1.638;2024-01-15T08:48:27;23.90;;;13.10;;
19609;SDS011;9952;47.122;-1.638;2024-01-15T08:53:07;25.10;;;15.20;;
19609;SDS011;9952;47.122;-1.638;2024-01-15T08:57:48;19.40;;;10.67;;
19609;SDS011;9952;47.122;-1.638;2024-01-15T09:02:29;21.83;;;11.63;;
19609;SDS011;9952;47.122;-1.638;2024-01-15T09:07:10;20.50;;;11.37;;
19609;SDS011;9952;47.122;-1.638;2024-01-15T09:11:51;24.57;;;15.20;;
19609;SDS011;9952;47.122;-1.638;2024-01-15T09:16:31;23.07;;;11.10;;
19609;SDS011;9952;47.122;-1.638;2024-01-15T09:21:12;18.40;;;9.90;;
19609;SDS011;9952;47.122;-1.638;2024-01-15T09:25:53;25.37;;;12.53;;
19609;SDS011;9952;47.122;-1.638;2024-01-15T09:30:34;20.87;;;11.13;;
19609;SDS011;9952;47.122;-1.638;2024-01-15T09:35:15;18.33;;;10.60;;
19609;SDS011;9952;47.122;-1.638;2024-01-15T09:39:55;21.33;;;11.03;;
19609;SDS011;9952;47.122;-1.638;2024-01-15T09:44:36;24.67;;;12.07;;
19609;SDS011;9952;47.122;-1.638;2024-01-15T09:49:17;20.87;;;11.00;;
19609;SDS011;9952;47.122;-1.638;2024-01-15T09:53:58;18.80;;;11.13;;
19609;SDS011;9952;47.122;-1.638;2024-01-15T09:58:39;23.83;;;12.03;;
19609;SDS011;9952;47.122;-1.638;2024-01-15T10:03:22;25.67;;;12.57;;
19609;SDS011;9952;47.122;-1.638;2024-01-15T10:08:03;22.47;;;12.27;;
19609;SDS011;9952;47.122;-1.638;2024-01-15T10:12:45;23.40;;;13.67;;
19609;SDS011;9952;47.122;-1.638;2024-01-15T10:17:25;22.70;;;12.33;;
19609;SDS011;9952;47.122;-1.638;2024-01-15T10:22:08;21.97;;;11.80;;
19609;SDS011;9952;47.122;-1.638;2024-01-15T10:26:50;26.80;;;14.00;;
19609;SDS011;9952;47.122;-1.638;2024-01-15T10:31:30;19.33;;;11.17;;
19609;SDS011;9952;47.122;-1.638;2024-01-15T10:36:11;23.47;;;11.50;;
19609;SDS011;9952;47.122;-1.638;2024-01-15T10:40:55;22.93;;;11.50;;
19609;SDS011;9952;47.122;-1.638;2024-01-15T10:45:36;21.17;;;11.37;;
19609;SDS011;9952;47.122;-1.638;2024-01-15T10:50:17;18.73;;;11.43;;
19609;SDS011;9952;47.122;-1.638;2024-01-15T10:54:57;22.33;;;11.40;;
19609;SDS011;9952;47.122;-1.638;2024-01-15T10:59:40;19.43;;;11.20;;
19609;SDS011;9952;47.122;-1.638;2024-01-15T11:04:21;19.57;;;10.83;;
19609;SDS011;9952;47.122;-1.638;2024-01-15T11:09:03;16.20;;;9.60;;
19609;SDS011;9952;47.122;-1.638;2024-01-15T11:13:46;20.03;;;11.03;;
19609;SDS011;9952;47.122;-1.638;2024-01-15T11:18:30;17.43;;;10.00;;
19609;SDS011;9952;47.122;-1.638;2024-01-15T11:23:29;14.80;;;9.00;;
19609;SDS011;9952;47.122;-1.638;2024-01-15T11:28:48;13.90;;;8.47;;
19609;SDS011;9952;47.122;-1.638;2024-01-15T11:33:32;14.40;;;8.43;;
19609;SDS011;9952;47.122;-1.638;2024-01-15T11:38:26;14.73;;;8.73;;
19609;SDS011;9952;47.122;-1.638;2024-01-15T11:43:08;12.40;;;7.93;;
19609;SDS011;9952;47.122;-1.638;2024-01-15T11:52:56;14.27;;;8.90;;
19609;SDS011;9952;47.122;-1.638;2024-01-15T11:57:52;14.63;;;8.27;;
19609;SDS011;9952;47.122;-1.638;2024-01-15T12:02:36;12.07;;;8.03;;
19609;SDS011;9952;47.122;-1.638;2024-01-15T12:07:17;13.87;;;8.40;;
19609;SDS011;9952;47.122;-1.638;2024-01-15T12:12:01;14.53;;;8.73;;
19609;SDS011;9952;47.122;-1.638;2024-01-15T12:16:47;15.00;;;8.40;;
19609;SDS011;9952;47.122;-1.638;2024-01-15T12:21:28;14.23;;;9.07;;
19609;SDS011;9952;47.122;-1.638;2024-01-15T12:26:09;15.83;;;9.10;;
19609;SDS011;9952;47.122;-1.638;2024-01-15T12:30:50;15.70;;;9.70;;
19609;SDS011;9952;47.122;-1.638;2024-01-15T12:35:31;20.10;;;9.40;;
19609;SDS011;9952;47.122;-1.638;2024-01-15T12:40:13;19.00;;;9.80;;
19609;SDS011;9952;47.122;-1.638;2024-01-15T12:44:59;17.07;;;9.80;;
19609;SDS011;9952;47.122;-1.638;2024-01-15T12:49:40;20.63;;;10.67;;
19609;SDS011;9952;47.122;-1.638;2024-01-15T12:54:22;19.40;;;9.63;;
19609;SDS011;9952;47.122;-1.638;2024-01-15T12:59:04;16.17;;;9.07;;
19609;SDS011;9952;47.122;-1.638;2024-01-15T13:03:44;14.53;;;8.20;;
19609;SDS011;9952;47.122;-1.638;2024-01-15T13:08:25;16.63;;;9.60;;
19609;SDS011;9952;47.122;-1.638;2024-01-15T13:13:08;14.70;;;9.07;;
19609;SDS011;9952;47.122;-1.638;2024-01-15T13:17:49;17.97;;;9.67;;
19609;SDS011;9952;47.122;-1.638;2024-01-15T13:22:29;15.43;;;8.63;;
19609;SDS011;9952;47.122;-1.638;2024-01-15T13:27:11;21.43;;;8.90;;
19609;SDS011;9952;47.122;-1.638;2024-01-15T13:31:53;20.17;;;9.77;;
19609;SDS011;9952;47.122;-1.638;2024-01-15T13:36:33;15.07;;;8.30;;
19609;SDS011;9952;47.122;-1.638;2024-01-15T13:41:14;19.23;;;8.50;;
19609;SDS011;9952;47.122;-1.638;2024-01-15T13:45:55;14.97;;;8.30;;
19609;SDS011;9952;47.122;-1.638;2024-01-15T13:50:36;18.50;;;9.20;;
19609;SDS011;9952;47.122;-1.638;2024-01-15T13:55:17;16.87;;;7.93;;
19609;SDS011;9952;47.122;-1.638;2024-01-15T13:59:57;12.20;;;6.50;;
19609;SDS011;9952;47.122;-1.638;2024-01-15T14:04:38;13.97;;;6.87;;
19609;SDS011;9952;47.122;-1.638;2024-01-15T14:09:19;12.53;;;6.73;;
19609;SDS011;9952;47.122;-1.638;2024-01-15T14:14:01;14.13;;;7.63;;
19609;SDS011;9952;47.122;-1.638;2024-01-15T14:18:42;14.33;;;7.93;;
19609;SDS011;9952;47.122;-1.638;2024-01-15T14:23:23;12.57;;;6.93;;
19609;SDS011;9952;47.122;-1.638;2024-01-15T14:28:04;18.20;;;9.40;;
19609;SDS011;9952;47.122;-1.638;2024-01-15T14:32:45;18.30;;;9.80;;
19609;SDS011;9952;47.122;-1.638;2024-01-15T14:37:25;18.10;;;8.70;;
19609;SDS011;9952;47.122;-1.638;2024-01-15T14:42:06;16.97;;;8.33;;
19609;SDS011;9952;47.122;-1.638;2024-01-15T14:46:47;15.40;;;8.03;;
19609;SDS011;9952;47.122;-1.638;2024-01-15T14:51:28;16.57;;;9.07;;
19609;SDS011;9952;47.122;-1.638;2024-01-15T14:56:08;19.07;;;9.93;;
19609;SDS011;9952;47.122;-1.638;2024-01-15T15:00:49;18.93;;;10.23;;
19609;SDS011;9952;47.122;-1.638;2024-01-15T15:05:30;22.73;;;10.53;;
19609;SDS011;9952;47.122;-1.638;2024-01-15T15:10:10;20.47;;;10.70;;
19609;SDS011;9952;47.122;-1.638;2024-01-15T15:14:51;19.43;;;10.30;;
19609;SDS011;9952;47.122;-1.638;2024-01-15T15:19:32;18.97;;;9.50;;
19609;SDS011;9952;47.122;-1.638;2024-01-15T15:24:13;21.53;;;10.37;;
19609;SDS011;9952;47.122;-1.638;2024-01-15T15:28:53;19.60;;;9.77;;
19609;SDS011;9952;47.122;-1.638;2024-01-15T15:33:34;18.37;;;9.30;;
19609;SDS011;9952;47.122;-1.638;2024-01-15T15:38:15;14.47;;;8.03;;
19609;SDS011;9952;47.122;-1.638;2024-01-15T15:42:56;16.27;;;9.70;;
19609;SDS011;9952;47.122;-1.638;2024-01-15T15:47:36;14.10;;;8.70;;
19609;SDS011;9952;47.122;-1.638;2024-01-15T15:52:17;12.20;;;8.13;;
19609;SDS011;9952;47.122;-1.638;2024-01-15T15:56:58;16.37;;;8.60;;
19609;SDS011;9952;47.122;-1.638;2024-01-15T16:01:38;15.37;;;8.47;;
19609;SDS011;9952;47.122;-1.638;2024-01-15T16:06:19;15.13;;;8.50;;
19609;SDS011;9952;47.122;-1.638;2024-01-15T16:11:00;19.83;;;8.20;;
19609;SDS011;9952;47.122;-1.638;2024-01-15T16:15:40;14.23;;;7.60;;
19609;SDS011;9952;47.122;-1.638;2024-01-15T16:20:21;15.30;;;8.43;;
19609;SDS011;9952;47.122;-1.638;2024-01-15T16:25:02;14.47;;;8.60;;
19609;SDS011;9952;47.122;-1.638;2024-01-15T16:29:42;15.40;;;9.13;;
19609;SDS011;9952;47.122;-1.638;2024-01-15T16:34:23;16.00;;;8.77;;
19609;SDS011;9952;47.122;-1.638;2024-01-15T16:39:04;17.97;;;9.27;;
19609;SDS011;9952;47.122;-1.638;2024-01-15T16:43:45;17.97;;;8.70;;
19609;SDS011;9952;47.122;-1.638;2024-01-15T16:48:27;16.47;;;9.40;;
19609;SDS011;9952;47.122;-1.638;2024-01-15T16:53:08;14.20;;;8.83;;
19609;SDS011;9952;47.122;-1.638;2024-01-15T16:57:48;18.27;;;10.17;;
19609;SDS011;9952;47.122;-1.638;2024-01-15T17:02:29;17.30;;;9.20;;
19609;SDS011;9952;47.122;-1.638;2024-01-15T17:07:10;19.50;;;9.13;;
19609;SDS011;9952;47.122;-1.638;2024-01-15T17:11:50;17.90;;;9.37;;
19609;SDS011;9952;47.122;-1.638;2024-01-15T17:16:31;19.57;;;9.70;;
19609;SDS011;9952;47.122;-1.638;2024-01-15T17:21:12;21.10;;;11.40;;
19609;SDS011;9952;47.122;-1.638;2024-01-15T17:25:53;15.10;;;8.20;;
19609;SDS011;9952;47.122;-1.638;2024-01-15T17:30:34;19.53;;;10.17;;
19609;SDS011;9952;47.122;-1.638;2024-01-15T17:35:15;23.17;;;11.43;;
19609;SDS011;9952;47.122;-1.638;2024-01-15T17:39:55;25.70;;;12.73;;
19609;SDS011;9952;47.122;-1.638;2024-01-15T17:44:36;22.20;;;12.57;;
19609;SDS011;9952;47.122;-1.638;2024-01-15T17:49:17;26.77;;;13.90;;
19609;SDS011;9952;47.122;-1.638;2024-01-15T17:53:57;27.57;;;13.70;;
19609;SDS011;9952;47.122;-1.638;2024-01-15T17:58:38;23.47;;;14.63;;
19609;SDS011;9952;47.122;-1.638;2024-01-15T18:03:20;27.37;;;14.17;;
19609;SDS011;9952;47.122;-1.638;2024-01-15T18:08:01;24.83;;;14.37;;
19609;SDS011;9952;47.122;-1.638;2024-01-15T18:12:42;23.80;;;13.13;;
19609;SDS011;9952;47.122;-1.638;2024-01-15T18:17:22;27.70;;;13.27;;
19609;SDS011;9952;47.122;-1.638;2024-01-15T18:22:03;21.87;;;12.27;;
19609;SDS011;9952;47.122;-1.638;2024-01-15T18:26:45;29.87;;;14.63;;
19609;SDS011;9952;47.122;-1.638;2024-01-15T18:31:26;25.50;;;13.80;;
19609;SDS011;9952;47.122;-1.638;2024-01-15T18:36:07;29.70;;;14.77;;
19609;SDS011;9952;47.122;-1.638;2024-01-15T18:40:48;28.10;;;15.03;;
19609;SDS011;9952;47.122;-1.638;2024-01-15T18:45:28;27.83;;;16.33;;
19609;SDS011;9952;47.122;-1.638;2024-01-15T18:50:09;28.17;;;15.97;;
19609;SDS011;9952;47.122;-1.638;2024-01-15T18:54:50;29.37;;;17.03;;
19609;SDS011;9952;47.122;-1.638;2024-01-15T18:59:30;34.47;;;17.70;;
19609;SDS011;9952;47.122;-1.638;2024-01-15T19:04:13;37.50;;;19.03;;
19609;SDS011;9952;47.122;-1.638;2024-01-15T19:08:55;33.90;;;17.33;;
19609;SDS011;9952;47.122;-1.638;2024-01-15T19:13:36;33.60;;;17.27;;
19609;SDS011;9952;47.122;-1.638;2024-01-15T19:18:17;37.53;;;17.87;;
19609;SDS011;9952;47.122;-1.638;2024-01-15T19:22:58;36.43;;;19.30;;
19609;SDS011;9952;47.122;-1.638;2024-01-15T19:27:40;31.00;;;16.20;;
19609;SDS011;9952;47.122;-1.638;2024-01-15T19:32:24;27.63;;;14.73;;
19609;SDS011;9952;47.122;-1.638;2024-01-15T19:37:04;27.73;;;16.30;;
19609;SDS011;9952;47.122;-1.638;2024-01-15T19:41:45;25.37;;;15.37;;
19609;SDS011;9952;47.122;-1.638;2024-01-15T19:46:26;30.93;;;15.17;;
19609;SDS011;9952;47.122;-1.638;2024-01-15T19:51:06;30.47;;;15.43;;
19609;SDS011;9952;47.122;-1.638;2024-01-15T19:55:47;30.43;;;16.23;;
19609;SDS011;9952;47.122;-1.638;2024-01-15T20:00:28;31.37;;;17.63;;
19609;SDS011;9952;47.122;-1.638;2024-01-15T20:05:08;32.77;;;17.17;;
19609;SDS011;9952;47.122;-1.638;2024-01-15T20:09:50;32.20;;;15.93;;
19609;SDS011;9952;47.122;-1.638;2024-01-15T20:14:30;35.17;;;19.27;;
19609;SDS011;9952;47.122;-1.638;2024-01-15T20:19:11;29.47;;;17.33;;
19609;SDS011;9952;47.122;-1.638;2024-01-15T20:23:52;45.13;;;23.00;;
19609;SDS011;9952;47.122;-1.638;2024-01-15T20:28:33;57.40;;;30.10;;
19609;SDS011;9952;47.122;-1.638;2024-01-15T20:33:14;33.10;;;16.53;;
19609;SDS011;9952;47.122;-1.638;2024-01-15T20:37:55;28.67;;;15.27;;
19609;SDS011;9952;47.122;-1.638;2024-01-15T20:42:37;26.50;;;14.70;;
19609;SDS011;9952;47.122;-1.638;2024-01-15T20:47:17;49.70;;;27.20;;
19609;SDS011;9952;47.122;-1.638;2024-01-15T20:51:59;30.97;;;14.40;;
19609;SDS011;9952;47.122;-1.638;2024-01-15T20:56:39;26.13;;;12.93;;
19609;SDS011;9952;47.122;-1.638;2024-01-15T21:01:20;28.80;;;15.10;;
19609;SDS011;9952;47.122;-1.638;2024-01-15T21:06:00;56.83;;;25.00;;
19609;SDS011;9952;47.122;-1.638;2024-01-15T21:10:41;53.67;;;23.37;;
19609;SDS011;9952;47.122;-1.638;2024-01-15T21:15:22;37.63;;;19.03;;
19609;SDS011;9952;47.122;-1.638;2024-01-15T21:20:02;34.03;;;16.20;;
19609;SDS011;9952;47.122;-1.638;2024-01-15T21:24:47;35.33;;;18.60;;
19609;SDS011;9952;47.122;-1.638;2024-01-15T21:29:28;38.37;;;18.13;;
19609;SDS011;9952;47.122;-1.638;2024-01-15T21:34:09;30.33;;;17.03;;
19609;SDS011;9952;47.122;-1.638;2024-01-15T21:38:49;35.93;;;17.13;;
19609;SDS011;9952;47.122;-1.638;2024-01-15T21:43:30;30.77;;;16.83;;
19609;SDS011;9952;47.122;-1.638;2024-01-15T21:48:11;33.10;;;18.20;;
19609;SDS011;9952;47.122;-1.638;2024-01-15T21:52:51;35.50;;;18.07;;
19609;SDS011;9952;47.122;-1.638;2024-01-15T21:57:32;35.07;;;18.90;;
19609;SDS011;9952;47.122;-1.638;2024-01-15T22:02:13;37.27;;;18.17;;
19609;SDS011;9952;47.122;-1.638;2024-01-15T22:06:54;39.87;;;21.73;;
19609;SDS011;9952;47.122;-1.638;2024-01-15T22:11:34;41.17;;;20.50;;
19609;SDS011;9952;47.122;-1.638;2024-01-15T22:16:15;35.80;;;19.73;;
19609;SDS011;9952;47.122;-1.638;2024-01-15T22:20:56;35.73;;;19.13;;
19609;SDS011;9952;47.122;-1.638;2024-01-15T22:25:37;35.13;;;18.30;;
19609;SDS011;9952;47.122;-1.638;2024-01-15T22:30:17;32.70;;;16.93;;
19609;SDS011;9952;47.122;-1.638;2024-01-15T22:34:58;34.33;;;18.20;;
19609;SDS011;9952;47.122;-1.638;2024-01-15T22:39:39;35.07;;;18.60;;
19609;SDS011;9952;47.122;-1.638;2024-01-15T22:44:19;35.47;;;19.43;;
19609;SDS011;9952;47.122;-1.638;2024-01-15T22:49:00;33.40;;;19.17;;
19609;SDS011;9952;47.122;-1.638;2024-01-15T22:53:41;39.07;;;18.73;;
19609;SDS011;9952;47.122;-1.638;2024-01-15T22:58:22;39.13;;;19.33;;
19609;SDS011;9952;47.122;-1.638;2024-01-15T23:03:03;36.83;;;19.70;;
19609;SDS011;9952;47.122;-1.638;2024-01-15T23:07:44;34.50;;;18.07;;
19609;SDS011;9952;47.122;-1.638;2024-01-15T23:12:24;33.10;;;18.30;;
19609;SDS011;9952;47.122;-1.638;2024-01-15T23:17:06;28.00;;;16.93;;
19609;SDS011;9952;47.122;-1.638;2024-01-15T23:21:47;36.23;;;17.33;;
19609;SDS011;9952;47.122;-1.638;2024-01-15T23:26:27;37.60;;;18.27;;
19609;SDS011;9952;47.122;-1.638;2024-01-15T23:31:08;36.00;;;17.87;;
19609;SDS011;9952;47.122;-1.638;2024-01-15T23:35:49;32.10;;;17.90;;
19609;SDS011;9952;47.122;-1.638;2024-01-15T23:40:30;36.07;;;18.00;;
19609;SDS011;9952;47.122;-1.638;2024-01-15T23:45:11;30.23;;;16.50;;
19609;SDS011;9952;47.122;-1.638;2024-01-15T23:49:51;28.50;;;16.40;;
19609;SDS011;9952;47.122;-1.638;2024-01-15T23:54:32;29.00;;;16.73;;
19609;SDS011;9952;47.122;-1.638;2024-01-15T23:59:15;30.13;;;16.37;;
